Emory, VA (24327)

3:40 AM EST on February 01, 2015 (GMT -0500)
KVAGLADE1 | Change Station
CLOSE
Current Station
Personal Weather Station
Location: Glade Spring, VA
Elevation: 2140 ft
Nearby Weather Stations

Elev 2140 ft 36.79 °N, 81.78 °W | Updated 4 minutes ago

Overcast
Overcast
31.8 °F
Feels Like 32 °F
N
0.0
Wind Variable Wind from SSW
Gusts 0.0 mph

Today
High -- | Low -- °F
--% Chance of Precip.
Yesterday
High -- | Low -- °F
Precip. -- in
7:29 AM 5:52 PM
Waxing Gibbous, 94% visible
Pressure 30.18 in
Visibility 10.0 miles
Clouds Overcast 10000 ft
Windchill 32 °F
Dew Point 21 °F
Humidity 64%
Rainfall 0.00 in
Snow Depth Not available.
UV 0 out of 12
Pollen .40 out of 12
Air Quality Not available.
Flu Activity Not available.
METAR KVJI 010815Z AUTO 06004KT 10SM OVC100 02/M10 A3018 RMK AO2 T00221096

More Conditions Fewer Conditions

Pressure 30.18 in
Visibility 10.0 miles
Clouds Overcast 10000 ft
Windchill 32 °F
Dew Point 21 °F
Humidity 64%
Rainfall 0.00 in
Snow Depth Not available.
UV 0 out of 12
Pollen .40 out of 12
Air Quality Not available.
Flu Activity Not available.
METAR KVJI 010815Z AUTO 06004KT 10SM OVC100 02/M10 A3018 RMK AO2 T00221096

More Conditions Fewer Conditions

10-Day Weather Forecast

Almanac

Astronomy

Feb. 01, 2015 Rise Set
Actual Time
Civil Twilight
Nautical Twilight
Astronomical Twilight
Moon
Length of Visible Light
Length of Day
Tomorrow will be .
, % of the Moon is Illuminated

Today's Extremes

State Highs State Lows

Community

WunderPhotos

Upload Photos

1,792,338 photos uploaded!

WunderBlogs® & News

Nearby

Air Quality

  Air Quality AQ Index Pollutant
Not available.

Snow Depth

Station Depth Elevation

Earthquake Activity

City Distance Mag. Time & Date
Minimum magnitude displayed is 2.5.

Coastal Water Temperatures

Place Temperature

Nearby Weather Stations